Time;durP1;ratioP1;P1;durP2;ratioP2;P2;SDS_P1;SDS_P2;PMS_P1;PMS_P2;Temp;Humidity;BMP_temperature;BMP_pressure;BME280_temperature;BME280_humidity;BME280_pressure;Samples;Min_cycle;Max_cycle;Signal;HPM_P1;HPM_P2
2022/05/21 00:01:52;;;;;;;;;;;17.10;99.90;;;;;;4985322;28;20297;-83
2022/05/21 00:04:18;;;;;;;;;;;17.10;99.90;;;;;;4985433;28;19910;-82
2022/05/21 00:06:43;;;;;;;;;;;17.10;99.90;;;;;;4985538;28;20269;-83
2022/05/21 00:09:09;;;;;;;;;;;17.10;99.90;;;;;;4985529;28;19969;-83
2022/05/21 00:11:35;;;;;;;;;;;17.10;99.90;;;;;;4985385;28;19913;-83
2022/05/21 00:14:00;;;;;;;;;;;17.10;99.90;;;;;;4984706;28;19906;-83
2022/05/21 00:16:26;;;;;;;;;;;17.00;99.90;;;;;;4985766;28;19906;-83
2022/05/21 00:18:52;;;;;;;;;;;17.00;99.90;;;;;;4968089;28;19957;-83
2022/05/21 00:21:17;;;;;;;;;;;17.00;99.90;;;;;;4985255;28;19945;-83
2022/05/21 00:23:43;;;;;;;;;;;17.00;99.90;;;;;;4984983;28;19906;-83
2022/05/21 00:26:10;;;;;;;;;;;17.00;99.90;;;;;;4985316;28;19938;-83
2022/05/21 00:28:37;;;;;;;;;;;16.90;99.90;;;;;;4985380;28;19913;-83
2022/05/21 00:31:03;;;;;;;;;;;16.90;99.90;;;;;;4985167;28;19910;-83
2022/05/21 00:33:28;;;;;;;;;;;16.90;99.90;;;;;;4984117;28;19917;-83
2022/05/21 00:35:54;;;;;;;;;;;16.90;99.90;;;;;;4985293;28;19913;-83
2022/05/21 00:38:20;;;;;;;;;;;16.90;99.90;;;;;;4966511;28;20181;-83
2022/05/21 00:40:46;;;;;;;;;;;16.80;99.90;;;;;;4984265;28;19953;-83
2022/05/21 00:43:30;;;;;;;;;;;16.80;99.90;;;;;;4984541;28;19953;-82
2022/05/21 00:45:56;;;;;;;;;;;16.80;99.90;;;;;;4984954;28;19907;-83
2022/05/21 00:48:21;;;;;;;;;;;16.80;99.90;;;;;;4984384;28;19914;-83
2022/05/21 00:50:47;;;;;;;;;;;16.80;99.90;;;;;;4984972;28;19914;-83
2022/05/21 00:53:13;;;;;;;;;;;16.80;99.90;;;;;;4984669;28;20421;-83
2022/05/21 00:55:39;;;;;;;;;;;16.70;99.90;;;;;;4984731;28;19906;-83
2022/05/21 01:00:51;;;;;;;;;;;16.60;99.90;;;;;;4986950;28;19928;-82
2022/05/21 01:03:17;;;;;;;;;;;16.50;99.90;;;;;;4988906;28;19906;-83
2022/05/21 01:05:44;;;;;;;;;;;16.50;99.90;;;;;;4988656;28;20233;-83
2022/05/21 01:08:10;;;;;;;;;;;16.50;99.90;;;;;;4970767;28;19912;-83
2022/05/21 01:10:38;;;;;;;;;;;16.50;99.90;;;;;;4988418;28;19906;-82
2022/05/21 01:13:06;;;;;;;;;;;16.40;99.90;;;;;;4987554;28;19945;-83
2022/05/21 01:15:37;;;;;;;;;;;16.30;99.90;;;;;;4988228;28;19906;-82
2022/05/21 01:18:06;;;;;;;;;;;16.30;99.90;;;;;;4986529;28;19921;-83
2022/05/21 01:20:41;;;;;;;;;;;16.30;99.90;;;;;;4969844;28;19907;-83
2022/05/21 01:23:07;;;;;;;;;;;16.30;99.90;;;;;;4970793;28;19913;-82
2022/05/21 01:25:35;;;;;;;;;;;16.20;99.90;;;;;;4987806;28;19906;-82
2022/05/21 01:28:01;;;;;;;;;;;16.30;99.90;;;;;;4988258;28;19906;-82
2022/05/21 01:30:32;;;;;;;;;;;16.20;99.90;;;;;;4987280;28;19906;-83
2022/05/21 01:32:58;;;;;;;;;;;16.20;99.90;;;;;;4987172;28;19914;-83
2022/05/21 01:35:23;;;;;;;;;;;16.20;99.90;;;;;;4987445;28;19906;-82
2022/05/21 01:37:49;;;;;;;;;;;16.10;99.90;;;;;;4986595;28;19960;-82
2022/05/21 01:40:17;;;;;;;;;;;16.20;99.90;;;;;;4987890;28;19941;-82
2022/05/21 01:42:43;;;;;;;;;;;16.10;99.90;;;;;;4985955;28;19906;-83
2022/05/21 01:45:08;;;;;;;;;;;16.10;99.90;;;;;;4970871;28;19907;-83
2022/05/21 01:47:41;;;;;;;;;;;16.10;99.90;;;;;;4987376;28;19953;-83
2022/05/21 01:50:07;;;;;;;;;;;16.10;99.90;;;;;;4970447;28;19910;-82
2022/05/21 01:52:33;;;;;;;;;;;16.10;99.90;;;;;;4987953;28;19961;-82
2022/05/21 01:54:59;;;;;;;;;;;16.10;99.90;;;;;;4987702;28;19961;-83
2022/05/21 01:57:24;;;;;;;;;;;16.00;99.90;;;;;;4987286;28;20190;-83
2022/05/21 01:59:50;;;;;;;;;;;16.10;99.90;;;;;;4987296;28;20164;-83
2022/05/21 02:02:15;;;;;;;;;;;16.00;99.90;;;;;;4986669;28;19907;-82
2022/05/21 02:04:41;;;;;;;;;;;16.00;99.90;;;;;;4986918;28;20125;-83
2022/05/21 02:07:06;;;;;;;;;;;16.00;99.90;;;;;;4987281;28;19906;-82
2022/05/21 02:09:32;;;;;;;;;;;16.00;99.90;;;;;;4987390;28;19981;-82
2022/05/21 02:11:57;;;;;;;;;;;16.00;99.90;;;;;;4985465;28;19929;-82
2022/05/21 02:14:23;;;;;;;;;;;15.90;99.90;;;;;;4985642;28;20102;-83
2022/05/21 02:16:48;;;;;;;;;;;15.90;99.90;;;;;;4987369;28;19906;-83
2022/05/21 02:19:14;;;;;;;;;;;15.90;99.90;;;;;;4986875;28;19986;-83
2022/05/21 02:21:40;;;;;;;;;;;15.90;99.90;;;;;;4986187;28;20094;-83
2022/05/21 02:24:07;;;;;;;;;;;15.80;99.90;;;;;;4986894;28;20190;-83
2022/05/21 02:26:34;;;;;;;;;;;15.90;99.90;;;;;;4986831;28;19929;-83
2022/05/21 02:28:59;;;;;;;;;;;15.90;99.90;;;;;;4986459;28;19914;-83
2022/05/21 02:31:26;;;;;;;;;;;15.80;99.90;;;;;;4985630;28;20133;-83
2022/05/21 02:33:51;;;;;;;;;;;15.80;99.90;;;;;;4986779;28;19906;-83
2022/05/21 02:36:17;;;;;;;;;;;15.80;99.90;;;;;;4986810;28;19912;-83
2022/05/21 02:41:27;;;;;;;;;;;15.80;99.90;;;;;;4985946;28;19929;-83
2022/05/21 02:43:52;;;;;;;;;;;15.80;99.90;;;;;;4986644;28;19906;-82
2022/05/21 02:46:18;;;;;;;;;;;15.80;99.90;;;;;;4986855;28;19977;-83
2022/05/21 02:48:43;;;;;;;;;;;15.70;99.90;;;;;;4986900;28;19907;-83
2022/05/21 02:51:09;;;;;;;;;;;15.80;99.90;;;;;;4986907;28;19913;-83
2022/05/21 02:53:35;;;;;;;;;;;15.80;99.90;;;;;;4985979;28;19906;-82
2022/05/21 02:56:05;;;;;;;;;;;15.80;99.90;;;;;;4984749;28;19906;-82
2022/05/21 02:58:30;;;;;;;;;;;15.90;99.90;;;;;;4985010;28;19914;-83
2022/05/21 03:00:56;;;;;;;;;;;15.80;99.90;;;;;;4986161;28;19913;-83
2022/05/21 03:03:22;;;;;;;;;;;15.80;99.90;;;;;;4985830;28;19911;-83
2022/05/21 03:05:47;;;;;;;;;;;15.80;99.90;;;;;;4985992;28;19913;-83
2022/05/21 03:10:57;;;;;;;;;;;15.70;99.90;;;;;;4986176;28;19914;-83
2022/05/21 03:13:23;;;;;;;;;;;15.70;99.90;;;;;;4985719;28;19910;-83
2022/05/21 03:15:49;;;;;;;;;;;15.70;99.90;;;;;;4986618;28;19906;-83
2022/05/21 03:18:15;;;;;;;;;;;15.70;99.90;;;;;;4985985;28;19914;-83
2022/05/21 03:20:41;;;;;;;;;;;15.70;99.90;;;;;;4984797;28;19906;-83
2022/05/21 03:23:07;;;;;;;;;;;15.70;99.90;;;;;;4984898;28;20102;-82
2022/05/21 03:25:34;;;;;;;;;;;15.60;99.90;;;;;;4985739;28;19907;-83
2022/05/21 03:28:00;;;;;;;;;;;15.60;99.90;;;;;;4968859;28;20193;-83
2022/05/21 03:30:27;;;;;;;;;;;15.50;99.90;;;;;;4986147;28;19913;-83
2022/05/21 03:32:53;;;;;;;;;;;15.60;99.90;;;;;;4968255;28;19929;-82
2022/05/21 03:35:20;;;;;;;;;;;15.60;99.90;;;;;;4985832;28;20098;-82
2022/05/21 03:37:46;;;;;;;;;;;15.60;99.90;;;;;;4985620;28;19909;-83
2022/05/21 03:40:12;;;;;;;;;;;15.60;99.90;;;;;;4985777;28;19918;-82
2022/05/21 03:42:38;;;;;;;;;;;15.50;99.90;;;;;;4983949;28;20194;-82
2022/05/21 03:45:04;;;;;;;;;;;15.50;99.90;;;;;;4985346;28;19914;-82
2022/05/21 03:47:30;;;;;;;;;;;15.50;99.90;;;;;;4985178;28;19929;-83
2022/05/21 03:49:55;;;;;;;;;;;15.50;99.90;;;;;;4985116;28;19906;-82
2022/05/21 03:52:21;;;;;;;;;;;15.50;99.90;;;;;;4985252;28;19910;-83
2022/05/21 03:54:46;;;;;;;;;;;15.50;99.90;;;;;;4967793;28;20133;-83
2022/05/21 03:57:14;;;;;;;;;;;15.50;99.90;;;;;;4984538;28;19906;-83
2022/05/21 03:59:40;;;;;;;;;;;15.50;99.90;;;;;;4985618;28;20005;-83
2022/05/21 04:02:05;;;;;;;;;;;15.50;99.90;;;;;;4985282;28;20105;-82
2022/05/21 04:04:31;;;;;;;;;;;15.50;99.90;;;;;;4985600;28;19906;-83
2022/05/21 04:06:57;;;;;;;;;;;15.50;99.90;;;;;;4984993;28;19906;-83
2022/05/21 04:09:22;;;;;;;;;;;15.50;99.90;;;;;;4985237;28;19906;-83
2022/05/21 04:11:48;;;;;;;;;;;15.50;99.90;;;;;;4985018;28;20154;-83
2022/05/21 04:14:14;;;;;;;;;;;15.50;99.90;;;;;;4985459;28;20102;-83
2022/05/21 04:16:41;;;;;;;;;;;15.40;99.90;;;;;;4984337;28;19913;-83
2022/05/21 04:19:06;;;;;;;;;;;15.40;99.90;;;;;;4985064;28;20366;-82
2022/05/21 04:21:32;;;;;;;;;;;15.40;99.90;;;;;;4984634;28;19906;-82
2022/05/21 04:23:58;;;;;;;;;;;15.40;99.90;;;;;;4985101;28;19906;-83
2022/05/21 04:26:23;;;;;;;;;;;15.40;99.90;;;;;;4985060;28;19945;-83
2022/05/21 04:28:49;;;;;;;;;;;15.40;99.90;;;;;;4985089;28;19952;-83
2022/05/21 04:31:14;;;;;;;;;;;15.30;99.90;;;;;;4984735;28;19906;-83
2022/05/21 04:33:40;;;;;;;;;;;15.30;99.90;;;;;;4985215;28;19907;-83
2022/05/21 04:36:17;;;;;;;;;;;15.30;99.90;;;;;;4987981;28;19906;-83
2022/05/21 04:38:44;;;;;;;;;;;15.30;99.90;;;;;;4989130;28;19914;-82
2022/05/21 04:41:10;;;;;;;;;;;15.30;99.90;;;;;;4988731;28;19918;-83
2022/05/21 04:43:35;;;;;;;;;;;15.30;99.90;;;;;;4988702;28;19912;-83
2022/05/21 04:46:01;;;;;;;;;;;15.20;99.90;;;;;;4988172;28;19906;-82
2022/05/21 04:48:26;;;;;;;;;;;15.30;99.90;;;;;;4987913;28;19917;-83
2022/05/21 04:50:52;;;;;;;;;;;15.30;99.90;;;;;;4988820;28;19913;-82
2022/05/21 04:53:17;;;;;;;;;;;15.30;99.90;;;;;;4987243;28;19920;-82
2022/05/21 04:55:43;;;;;;;;;;;15.30;99.90;;;;;;4988427;28;19906;-83
2022/05/21 04:58:09;;;;;;;;;;;15.30;99.90;;;;;;4988684;28;19914;-83
2022/05/21 05:00:34;;;;;;;;;;;15.30;99.90;;;;;;4971098;28;19906;-83
2022/05/21 05:03:00;;;;;;;;;;;15.30;99.90;;;;;;4987477;28;19912;-82
2022/05/21 05:05:25;;;;;;;;;;;15.30;99.90;;;;;;4988686;28;19985;-83
2022/05/21 05:07:51;;;;;;;;;;;15.40;99.90;;;;;;4971224;28;19906;-82
2022/05/21 05:10:17;;;;;;;;;;;15.30;99.90;;;;;;4988386;28;19956;-82
2022/05/21 05:12:42;;;;;;;;;;;15.30;99.90;;;;;;4988418;28;20182;-84
2022/05/21 05:15:08;;;;;;;;;;;15.40;99.90;;;;;;4970415;28;19906;-83
2022/05/21 05:17:33;;;;;;;;;;;15.40;99.90;;;;;;4984885;28;20350;-83
2022/05/21 05:20:00;;;;;;;;;;;15.40;99.90;;;;;;4978367;28;19910;-83
2022/05/21 05:22:25;;;;;;;;;;;15.50;99.90;;;;;;4984807;28;20097;-83
2022/05/21 05:24:51;;;;;;;;;;;15.50;99.90;;;;;;4977686;28;20009;-83
2022/05/21 05:27:17;;;;;;;;;;;15.50;99.90;;;;;;4978180;28;19974;-83
2022/05/21 05:29:42;;;;;;;;;;;15.50;99.90;;;;;;4977538;28;19910;-81
2022/05/21 05:32:08;;;;;;;;;;;15.50;99.90;;;;;;4977457;28;20327;-83
2022/05/21 05:34:34;;;;;;;;;;;15.50;99.90;;;;;;4960025;28;20385;-83
2022/05/21 05:37:00;;;;;;;;;;;15.50;99.90;;;;;;4986518;28;20106;-83
2022/05/21 05:39:26;;;;;;;;;;;15.60;99.90;;;;;;4986029;28;19922;-83
2022/05/21 05:41:52;;;;;;;;;;;15.60;99.90;;;;;;4987800;28;20228;-83
2022/05/21 05:44:18;;;;;;;;;;;15.60;99.90;;;;;;4987904;28;19906;-83
2022/05/21 05:46:44;;;;;;;;;;;15.70;99.90;;;;;;4986213;28;20276;-83
2022/05/21 05:49:10;;;;;;;;;;;15.80;99.90;;;;;;4986784;28;19907;-82
2022/05/21 05:51:35;;;;;;;;;;;15.90;99.90;;;;;;4986967;28;19945;-83
2022/05/21 05:54:01;;;;;;;;;;;15.90;99.90;;;;;;4986583;28;19910;-83
2022/05/21 05:56:26;;;;;;;;;;;16.10;99.90;;;;;;4982791;28;20117;-84
2022/05/21 06:01:36;;;;;;;;;;;16.20;99.90;;;;;;4976982;28;20297;-83
2022/05/21 06:04:01;;;;;;;;;;;16.30;99.90;;;;;;4977009;28;19911;-83
2022/05/21 06:06:28;;;;;;;;;;;16.30;99.90;;;;;;4976638;28;19910;-83
2022/05/21 06:08:53;;;;;;;;;;;16.40;99.90;;;;;;4976856;28;19910;-83
2022/05/21 06:11:20;;;;;;;;;;;16.50;99.90;;;;;;4976952;28;19980;-83
2022/05/21 06:13:46;;;;;;;;;;;16.60;99.90;;;;;;4976738;28;19910;-83
2022/05/21 06:16:11;;;;;;;;;;;16.60;99.90;;;;;;4976986;28;19914;-83
2022/05/21 06:18:37;;;;;;;;;;;16.70;99.90;;;;;;4976639;28;19918;-83
2022/05/21 06:21:04;;;;;;;;;;;16.70;99.90;;;;;;4976767;28;19933;-83
2022/05/21 06:23:30;;;;;;;;;;;16.90;99.90;;;;;;4976836;28;19917;-83
2022/05/21 06:25:57;;;;;;;;;;;17.00;99.90;;;;;;4976523;28;19911;-83
2022/05/21 06:28:23;;;;;;;;;;;17.00;99.90;;;;;;4976528;28;19957;-83
2022/05/21 06:30:48;;;;;;;;;;;17.10;99.90;;;;;;4976387;28;20326;-83
2022/05/21 06:33:17;;;;;;;;;;;17.20;99.90;;;;;;4976647;28;19910;-83
2022/05/21 06:35:43;;;;;;;;;;;17.30;99.90;;;;;;4976663;28;19910;-83
2022/05/21 06:38:09;;;;;;;;;;;17.40;99.90;;;;;;4976520;28;20444;-83
2022/05/21 06:40:34;;;;;;;;;;;17.50;99.90;;;;;;4976120;28;19926;-83
2022/05/21 06:43:00;;;;;;;;;;;17.60;99.90;;;;;;4976277;28;20302;-83
2022/05/21 06:45:35;;;;;;;;;;;17.70;99.90;;;;;;4976107;28;19913;-83
2022/05/21 06:48:01;;;;;;;;;;;17.70;99.90;;;;;;4976044;28;19911;-83
2022/05/21 06:50:27;;;;;;;;;;;17.80;99.90;;;;;;4976103;28;19914;-83
2022/05/21 06:52:53;;;;;;;;;;;17.90;99.90;;;;;;4976253;28;19917;-83
2022/05/21 06:55:19;;;;;;;;;;;18.00;99.90;;;;;;4976309;28;19910;-83
2022/05/21 06:57:45;;;;;;;;;;;18.00;99.90;;;;;;4975106;28;19918;-83
2022/05/21 07:00:11;;;;;;;;;;;18.00;99.90;;;;;;4976251;28;20337;-83
2022/05/21 07:02:36;;;;;;;;;;;18.20;99.90;;;;;;4976548;28;19917;-83
2022/05/21 07:07:46;;;;;;;;;;;18.40;99.90;;;;;;4975645;28;19965;-83
2022/05/21 07:10:19;;;;;;;;;;;18.60;99.90;;;;;;4975525;28;19910;-83
2022/05/21 07:12:45;;;;;;;;;;;18.70;99.90;;;;;;4975672;28;19921;-83
2022/05/21 07:15:11;;;;;;;;;;;18.80;99.90;;;;;;4975615;28;20297;-83
2022/05/21 07:17:37;;;;;;;;;;;18.90;99.90;;;;;;4975668;28;19925;-83
2022/05/21 07:20:08;;;;;;;;;;;19.00;99.90;;;;;;4975654;28;19917;-83
2022/05/21 07:22:33;;;;;;;;;;;19.10;99.90;;;;;;4975583;28;19914;-83
2022/05/21 07:25:01;;;;;;;;;;;19.20;99.90;;;;;;4975486;28;19918;-83
2022/05/21 07:27:26;;;;;;;;;;;19.30;99.90;;;;;;4975304;28;20016;-83
2022/05/21 07:29:52;;;;;;;;;;;19.40;99.90;;;;;;4975510;28;19946;-83
2022/05/21 07:32:22;;;;;;;;;;;19.50;99.90;;;;;;4975257;28;20309;-83
2022/05/21 07:34:47;;;;;;;;;;;19.50;99.90;;;;;;4975459;28;19956;-83
2022/05/21 07:37:13;;;;;;;;;;;19.60;99.90;;;;;;4975369;28;19911;-83
2022/05/21 07:39:39;;;;;;;;;;;19.70;99.90;;;;;;4975137;28;20294;-83
2022/05/21 07:42:05;;;;;;;;;;;19.80;99.90;;;;;;4975266;28;19949;-83
2022/05/21 07:44:30;;;;;;;;;;;19.90;99.90;;;;;;4975449;28;19917;-83
2022/05/21 07:46:56;;;;;;;;;;;20.10;99.90;;;;;;4973694;28;19910;-83
2022/05/21 07:49:23;;;;;;;;;;;20.20;99.90;;;;;;4975293;28;19911;-83
2022/05/21 07:51:49;;;;;;;;;;;20.30;99.90;;;;;;4975560;28;20001;-83
2022/05/21 07:54:14;;;;;;;;;;;20.40;99.90;;;;;;4973750;28;19949;-83
2022/05/21 07:56:40;;;;;;;;;;;20.40;99.90;;;;;;4974977;28;19917;-83
2022/05/21 07:59:05;;;;;;;;;;;20.60;99.90;;;;;;4957590;28;19965;-83
2022/05/21 08:01:31;;;;;;;;;;;20.70;99.90;;;;;;4975089;28;19910;-83
2022/05/21 08:03:56;;;;;;;;;;;20.80;99.90;;;;;;4974921;28;19911;-83
2022/05/21 08:06:22;;;;;;;;;;;20.90;99.90;;;;;;4957855;28;19910;-83
2022/05/21 08:08:50;;;;;;;;;;;20.90;99.90;;;;;;4974465;28;20378;-83
2022/05/21 08:11:16;;;;;;;;;;;21.00;99.90;;;;;;4974821;28;20362;-82
2022/05/21 08:13:42;;;;;;;;;;;21.00;99.90;;;;;;4975301;28;19941;-83
2022/05/21 08:16:08;;;;;;;;;;;21.00;99.90;;;;;;4974942;28;19916;-83
2022/05/21 08:18:33;;;;;;;;;;;21.10;99.90;;;;;;4974930;28;19997;-83
2022/05/21 08:20:59;;;;;;;;;;;21.30;99.90;;;;;;4974829;28;19911;-82
2022/05/21 08:28:53;;;;;;;;;;;21.80;99.90;;;;;;4974818;28;19917;-83
2022/05/21 08:31:18;;;;;;;;;;;21.90;99.90;;;;;;4974592;28;19910;-83
2022/05/21 08:33:44;;;;;;;;;;;22.00;99.90;;;;;;4974641;28;20323;-83
2022/05/21 08:36:09;;;;;;;;;;;22.10;99.90;;;;;;4974582;28;20335;-83
2022/05/21 08:38:35;;;;;;;;;;;22.30;99.90;;;;;;4974952;28;19918;-83
2022/05/21 08:41:03;;;;;;;;;;;22.40;99.90;;;;;;4974585;28;19937;-83
2022/05/21 08:43:31;;;;;;;;;;;22.50;99.90;;;;;;4974763;28;19910;-83
2022/05/21 08:46:09;;;;;;;;;;;22.60;99.90;;;;;;4974506;28;19958;-83
2022/05/21 08:48:36;;;;;;;;;;;22.70;99.90;;;;;;4974479;28;19917;-83
2022/05/21 08:51:04;;;;;;;;;;;22.80;99.90;;;;;;4974501;28;20412;-83
2022/05/21 08:53:31;;;;;;;;;;;22.90;99.90;;;;;;4974491;28;20362;-83
2022/05/21 08:55:59;;;;;;;;;;;23.00;99.90;;;;;;4974380;28;20029;-83
2022/05/21 08:58:28;;;;;;;;;;;23.10;99.90;;;;;;4974376;28;19918;-83
2022/05/21 09:00:55;;;;;;;;;;;23.20;99.90;;;;;;4974487;28;20436;-83
2022/05/21 09:03:22;;;;;;;;;;;23.40;99.90;;;;;;4974537;28;19914;-83
2022/05/21 09:05:53;;;;;;;;;;;23.50;99.90;;;;;;4974594;28;20418;-83
2022/05/21 09:08:45;;;;;;;;;;;23.60;99.90;;;;;;4974669;28;19910;-83
2022/05/21 09:11:15;;;;;;;;;;;23.60;99.90;;;;;;4951628;28;20389;-83
2022/05/21 09:13:44;;;;;;;;;;;23.80;99.90;;;;;;4974201;28;19916;-83
2022/05/21 09:18:58;;;;;;;;;;;23.90;99.90;;;;;;4974295;28;19958;-83
2022/05/21 09:21:25;;;;;;;;;;;24.10;99.90;;;;;;4976407;28;19910;-83
2022/05/21 09:23:50;;;;;;;;;;;24.20;99.90;;;;;;4960370;28;19910;-83
2022/05/21 09:26:17;;;;;;;;;;;24.30;99.90;;;;;;4977857;28;19910;-83
2022/05/21 09:28:42;;;;;;;;;;;24.40;99.90;;;;;;4977285;28;20337;-83
2022/05/21 09:31:09;;;;;;;;;;;24.50;99.90;;;;;;4977506;28;19910;-83
2022/05/21 09:33:36;;;;;;;;;;;24.60;99.90;;;;;;4977412;28;19973;-83
2022/05/21 09:36:01;;;;;;;;;;;24.70;99.90;;;;;;4960110;28;19914;-83
2022/05/21 09:38:45;;;;;;;;;;;24.80;99.90;;;;;;4960073;28;19922;-83
2022/05/21 09:41:15;;;;;;;;;;;24.80;99.90;;;;;;4977370;28;19922;-83
2022/05/21 09:46:33;;;;;;;;;;;25.10;99.90;;;;;;4977380;28;19968;-83
2022/05/21 09:49:14;;;;;;;;;;;25.30;99.90;;;;;;4977310;28;19945;-83
2022/05/21 09:51:40;;;;;;;;;;;25.30;99.90;;;;;;4977782;28;19910;-83
2022/05/21 09:54:21;;;;;;;;;;;25.40;99.90;;;;;;4977109;28;19910;-84
2022/05/21 09:56:54;;;;;;;;;;;25.50;99.90;;;;;;4977181;28;19914;-83
2022/05/21 09:59:21;;;;;;;;;;;25.60;99.90;;;;;;4977009;28;19918;-83
2022/05/21 10:01:53;;;;;;;;;;;25.70;99.90;;;;;;4977050;28;19911;-83
2022/05/21 10:04:27;;;;;;;;;;;25.80;99.40;;;;;;4977081;28;20378;-83
2022/05/21 10:06:56;;;;;;;;;;;26.00;99.90;;;;;;4977139;28;20398;-83
2022/05/21 10:12:27;;;;;;;;;;;26.30;99.60;;;;;;4973821;28;20442;-84
2022/05/21 10:14:56;;;;;;;;;;;26.30;99.00;;;;;;4976894;28;19910;-84
2022/05/21 10:17:31;;;;;;;;;;;26.30;99.10;;;;;;4976597;28;19953;-84
2022/05/21 10:19:59;;;;;;;;;;;26.30;99.20;;;;;;4976871;28;19917;-84
2022/05/21 10:22:28;;;;;;;;;;;26.40;99.30;;;;;;4976812;28;19911;-84
2022/05/21 10:24:54;;;;;;;;;;;26.40;99.30;;;;;;4976845;28;19910;-84
2022/05/21 10:27:24;;;;;;;;;;;26.60;98.40;;;;;;4977030;28;20282;-83
2022/05/21 10:30:03;;;;;;;;;;;26.60;97.80;;;;;;4976908;28;19910;-84
2022/05/21 10:32:47;;;;;;;;;;;26.60;98.50;;;;;;4976487;28;20289;-83
2022/05/21 10:35:22;;;;;;;;;;;26.70;98.00;;;;;;4976708;28;19965;-84
2022/05/21 10:37:56;;;;;;;;;;;26.80;97.70;;;;;;4976343;28;19965;-83
2022/05/21 10:40:24;;;;;;;;;;;26.80;98.60;;;;;;4977057;28;19933;-85
2022/05/21 10:42:53;;;;;;;;;;;26.90;98.50;;;;;;4975282;28;20370;-84
2022/05/21 10:45:18;;;;;;;;;;;27.00;98.30;;;;;;4976432;28;20267;-85
2022/05/21 10:47:50;;;;;;;;;;;27.10;97.70;;;;;;4976267;28;19956;-84
2022/05/21 10:50:25;;;;;;;;;;;27.20;97.50;;;;;;4976081;28;19964;-83
2022/05/21 10:53:02;;;;;;;;;;;27.30;97.40;;;;;;4975994;28;19918;-83
2022/05/21 10:55:28;;;;;;;;;;;27.30;97.20;;;;;;4976244;28;19910;-83
2022/05/21 10:58:16;;;;;;;;;;;27.50;96.90;;;;;;4975872;28;19918;-83
2022/05/21 11:00:55;;;;;;;;;;;27.50;97.40;;;;;;4975893;28;19918;-83
2022/05/21 11:03:24;;;;;;;;;;;27.60;97.30;;;;;;4974722;28;20082;-83
2022/05/21 11:05:49;;;;;;;;;;;27.70;96.70;;;;;;4976112;28;20060;-83
2022/05/21 11:08:25;;;;;;;;;;;27.70;96.10;;;;;;4975944;28;19961;-83
2022/05/21 11:10:50;;;;;;;;;;;27.80;96.20;;;;;;4975760;28;19917;-83
2022/05/21 11:13:26;;;;;;;;;;;27.90;96.00;;;;;;4975543;28;19910;-83
2022/05/21 11:15:54;;;;;;;;;;;28.10;96.20;;;;;;4975487;28;19922;-83
2022/05/21 11:18:26;;;;;;;;;;;28.20;95.50;;;;;;4975497;28;19918;-83
2022/05/21 11:20:54;;;;;;;;;;;28.20;95.20;;;;;;4975741;28;19917;-83
2022/05/21 11:23:26;;;;;;;;;;;28.30;95.20;;;;;;4974366;28;19957;-83
2022/05/21 11:26:01;;;;;;;;;;;28.30;94.90;;;;;;4975543;28;20001;-83
2022/05/21 11:28:31;;;;;;;;;;;28.40;94.40;;;;;;4975866;28;19914;-83
2022/05/21 11:30:59;;;;;;;;;;;28.40;95.00;;;;;;4975653;28;19910;-83
2022/05/21 11:38:56;;;;;;;;;;;28.70;94.20;;;;;;4975213;28;19924;-82
2022/05/21 11:41:42;;;;;;;;;;;28.80;93.90;;;;;;4974050;28;20382;-83
2022/05/21 11:46:53;;;;;;;;;;;29.00;93.30;;;;;;4975574;28;19965;-83
2022/05/21 11:49:34;;;;;;;;;;;29.10;93.50;;;;;;4975332;28;19910;-83
2022/05/21 11:52:19;;;;;;;;;;;29.20;92.80;;;;;;4975126;28;19910;-82
2022/05/21 11:54:45;;;;;;;;;;;29.30;92.80;;;;;;4974867;28;20433;-82
2022/05/21 11:57:11;;;;;;;;;;;29.40;93.10;;;;;;4975038;28;19910;-82
2022/05/21 11:59:56;;;;;;;;;;;29.40;92.40;;;;;;4974914;28;20393;-82
2022/05/21 12:02:23;;;;;;;;;;;29.60;92.70;;;;;;4974421;28;19957;-82
2022/05/21 12:04:50;;;;;;;;;;;29.70;92.80;;;;;;4978041;28;19906;-83
2022/05/21 12:07:36;;;;;;;;;;;29.80;92.40;;;;;;4984427;28;19907;-83
2022/05/21 12:10:03;;;;;;;;;;;29.80;93.10;;;;;;4967878;28;19928;-82
2022/05/21 12:12:29;;;;;;;;;;;30.00;92.60;;;;;;4984753;28;19906;-82
2022/05/21 12:14:56;;;;;;;;;;;30.30;92.70;;;;;;4985287;28;19913;-83
2022/05/21 12:17:40;;;;;;;;;;;30.50;92.60;;;;;;4985270;28;20206;-82
2022/05/21 12:20:07;;;;;;;;;;;30.70;92.10;;;;;;4984371;28;19953;-83
2022/05/21 12:22:34;;;;;;;;;;;30.80;91.40;;;;;;4984744;28;19929;-83
2022/05/21 12:25:00;;;;;;;;;;;30.80;91.80;;;;;;4984541;28;19906;-83
2022/05/21 12:27:27;;;;;;;;;;;31.00;92.00;;;;;;4984647;28;19914;-83
2022/05/21 12:29:56;;;;;;;;;;;31.30;91.60;;;;;;4984097;28;20392;-82
2022/05/21 12:32:26;;;;;;;;;;;31.50;91.00;;;;;;4983632;28;19933;-83
2022/05/21 12:35:10;;;;;;;;;;;31.60;90.50;;;;;;4984476;28;19953;-83
2022/05/21 12:37:40;;;;;;;;;;;31.50;90.50;;;;;;4984042;28;19914;-82
2022/05/21 12:40:15;;;;;;;;;;;31.50;90.90;;;;;;4984080;28;19925;-83
2022/05/21 12:42:42;;;;;;;;;;;31.40;90.90;;;;;;4983832;28;19906;-83
2022/05/21 12:45:07;;;;;;;;;;;31.70;90.90;;;;;;4976354;28;19910;-83
2022/05/21 12:47:35;;;;;;;;;;;32.00;90.60;;;;;;4957223;28;20366;-83
2022/05/21 12:50:03;;;;;;;;;;;32.10;90.30;;;;;;4974485;28;19911;-84
2022/05/21 12:52:40;;;;;;;;;;;32.30;89.60;;;;;;4957006;28;20281;-83
2022/05/21 12:55:12;;;;;;;;;;;32.70;90.10;;;;;;4976491;28;19917;-83
2022/05/21 12:57:38;;;;;;;;;;;32.80;89.50;;;;;;4978002;28;19955;-83
2022/05/21 13:00:04;;;;;;;;;;;33.00;89.10;;;;;;4977347;28;20344;-83
2022/05/21 13:02:38;;;;;;;;;;;33.20;89.20;;;;;;4978096;28;19997;-83
2022/05/21 13:05:04;;;;;;;;;;;33.40;88.50;;;;;;4978129;28;19914;-83
2022/05/21 13:07:34;;;;;;;;;;;33.60;88.50;;;;;;4978098;28;19910;-83
2022/05/21 13:10:16;;;;;;;;;;;33.70;87.40;;;;;;4976661;28;19917;-84
2022/05/21 13:13:02;;;;;;;;;;;33.60;88.30;;;;;;4977843;28;19997;-83
2022/05/21 13:15:32;;;;;;;;;;;33.90;88.60;;;;;;4977792;28;19910;-83
2022/05/21 13:18:07;;;;;;;;;;;34.20;88.20;;;;;;4977894;28;19918;-83
2022/05/21 13:20:44;;;;;;;;;;;34.50;86.50;;;;;;4976661;28;19917;-83
2022/05/21 13:23:28;;;;;;;;;;;34.90;86.60;;;;;;4977911;28;19932;-83
2022/05/21 13:25:54;;;;;;;;;;;34.90;85.30;;;;;;4977746;28;20433;-83
2022/05/21 13:28:22;;;;;;;;;;;34.80;85.10;;;;;;4977980;28;19917;-84
2022/05/21 13:30:49;;;;;;;;;;;35.30;84.80;;;;;;4977759;28;19914;-83
2022/05/21 13:33:34;;;;;;;;;;;36.10;84.40;;;;;;4976214;28;19917;-83
2022/05/21 13:36:05;;;;;;;;;;;37.10;83.40;;;;;;4977463;28;19917;-83
2022/05/21 13:38:35;;;;;;;;;;;37.80;82.20;;;;;;4977320;28;19981;-83
2022/05/21 13:41:05;;;;;;;;;;;38.40;79.40;;;;;;4977650;28;20298;-83
2022/05/21 13:43:35;;;;;;;;;;;39.20;79.60;;;;;;4977561;28;19910;-82
2022/05/21 13:46:04;;;;;;;;;;;39.80;77.50;;;;;;4979434;28;19966;-83
2022/05/21 13:48:34;;;;;;;;;;;40.70;76.70;;;;;;4977538;28;19956;-84
2022/05/21 13:51:00;;;;;;;;;;;41.50;75.80;;;;;;4980664;28;19911;-84
2022/05/21 13:53:27;;;;;;;;;;;42.70;73.60;;;;;;4959828;28;19911;-83
2022/05/21 13:55:55;;;;;;;;;;;43.00;71.40;;;;;;4976153;28;19910;-83
2022/05/21 13:58:26;;;;;;;;;;;43.40;70.10;;;;;;4977463;28;20338;-83
2022/05/21 14:00:52;;;;;;;;;;;44.00;69.30;;;;;;4980600;28;19961;-83
2022/05/21 14:03:19;;;;;;;;;;;44.70;67.40;;;;;;4981065;28;19910;-83
2022/05/21 14:05:47;;;;;;;;;;;43.80;66.20;;;;;;4978439;28;20290;-83
2022/05/21 14:08:14;;;;;;;;;;;44.40;66.40;;;;;;4960120;28;20342;-84
2022/05/21 14:10:46;;;;;;;;;;;45.70;65.60;;;;;;4978364;28;19911;-84
2022/05/21 14:13:32;;;;;;;;;;;45.50;64.00;;;;;;4976938;28;19910;-83
2022/05/21 14:15:59;;;;;;;;;;;46.60;63.70;;;;;;4978969;28;19965;-83
2022/05/21 14:18:30;;;;;;;;;;;45.90;62.70;;;;;;4979254;28;19914;-84
2022/05/21 14:20:57;;;;;;;;;;;46.60;62.30;;;;;;4977740;28;19916;-84
2022/05/21 14:23:22;;;;;;;;;;;46.90;61.60;;;;;;4977438;28;20366;-86
2022/05/21 14:25:48;;;;;;;;;;;47.50;60.50;;;;;;4977153;28;19965;-84
2022/05/21 14:28:16;;;;;;;;;;;48.30;60.00;;;;;;4976761;28;19910;-84
2022/05/21 14:30:46;;;;;;;;;;;48.10;59.00;;;;;;4976546;28;20341;-84
2022/05/21 14:33:18;;;;;;;;;;;47.90;59.10;;;;;;4976619;28;20439;-84
2022/05/21 14:35:44;;;;;;;;;;;47.60;58.50;;;;;;4976651;28;19954;-83
2022/05/21 14:38:13;;;;;;;;;;;46.20;58.40;;;;;;4978597;28;19918;-83
2022/05/21 14:40:46;;;;;;;;;;;45.60;59.30;;;;;;4976668;28;19923;-83
2022/05/21 14:43:18;;;;;;;;;;;46.50;58.80;;;;;;4977119;28;19914;-83
2022/05/21 14:45:43;;;;;;;;;;;47.60;58.30;;;;;;4976325;28;19911;-84
2022/05/21 14:48:09;;;;;;;;;;;48.30;57.40;;;;;;4976077;28;20041;-84
2022/05/21 14:53:30;;;;;;;;;;;47.70;57.40;;;;;;4976824;28;19918;-84
2022/05/21 14:55:56;;;;;;;;;;;47.60;56.90;;;;;;4976137;28;19961;-84
2022/05/21 14:58:22;;;;;;;;;;;46.60;57.40;;;;;;4958597;28;19949;-84
2022/05/21 15:00:48;;;;;;;;;;;46.30;57.80;;;;;;4975900;28;19969;-83